Time;durP1;ratioP1;P1;durP2;ratioP2;P2;SDS_P1;SDS_P2;PMS_P1;PMS_P2;Temp;Humidity;BMP_temperature;BMP_pressure;BME280_temperature;BME280_humidity;BME280_pressure;Samples;Min_cycle;Max_cycle;Signal;HPM_P1;HPM_P2
2019/05/17 00:00:41;;;;;;;1.45;1.34;;;;;;;19.09;42.09;99868.42;;;;-58
2019/05/17 00:03:41;;;;;;;1.43;1.30;;;;;;;19.09;42.13;99870.50;;;;-58
2019/05/17 00:06:41;;;;;;;1.61;1.45;;;;;;;19.08;42.12;99867.78;;;;-59
2019/05/17 00:09:41;;;;;;;1.39;1.29;;;;;;;19.07;42.14;99864.50;;;;-58
2019/05/17 00:12:41;;;;;;;1.43;1.33;;;;;;;19.08;42.16;99865.20;;;;-58
2019/05/17 00:15:41;;;;;;;1.39;1.29;;;;;;;19.07;42.10;99861.98;;;;-58
2019/05/17 00:18:41;;;;;;;1.33;1.23;;;;;;;19.06;42.11;99859.20;;;;-59
2019/05/17 00:21:41;;;;;;;1.47;1.37;;;;;;;19.06;42.19;99858.44;;;;-58
2019/05/17 00:24:41;;;;;;;1.40;1.30;;;;;;;19.06;42.14;99860.34;;;;-58
2019/05/17 00:27:41;;;;;;;1.31;1.21;;;;;;;19.05;42.16;99860.58;;;;-58
2019/05/17 00:30:41;;;;;;;1.60;1.50;;;;;;;19.05;42.14;99857.73;;;;-58
2019/05/17 00:33:41;;;;;;;1.40;1.30;;;;;;;19.04;42.20;99852.23;;;;-58
2019/05/17 00:36:41;;;;;;;1.37;1.27;;;;;;;19.04;42.17;99852.00;;;;-58
2019/05/17 00:39:41;;;;;;;1.31;1.21;;;;;;;19.04;42.18;99848.55;;;;-58
2019/05/17 00:42:41;;;;;;;1.57;1.47;;;;;;;19.03;42.18;99846.28;;;;-58
2019/05/17 00:45:41;;;;;;;1.41;1.31;;;;;;;19.03;42.18;99843.20;;;;-58
2019/05/17 00:48:41;;;;;;;1.54;1.44;;;;;;;19.02;42.18;99842.66;;;;-59
2019/05/17 00:51:41;;;;;;;1.55;1.32;;;;;;;19.02;42.20;99836.88;;;;-59
2019/05/17 00:54:41;;;;;;;1.31;1.21;;;;;;;19.01;42.17;99830.14;;;;-58
2019/05/17 00:57:41;;;;;;;1.57;1.39;;;;;;;19.02;42.19;99830.78;;;;-58
2019/05/17 01:00:41;;;;;;;1.47;1.37;;;;;;;19.01;42.18;99821.94;;;;-58
2019/05/17 01:03:41;;;;;;;1.64;1.40;;;;;;;19.01;42.20;99819.59;;;;-58
2019/05/17 01:06:41;;;;;;;1.80;1.30;;;;;;;19.01;42.20;99815.58;;;;-59
2019/05/17 01:09:41;;;;;;;1.31;1.21;;;;;;;19.00;42.16;99814.48;;;;-58
2019/05/17 01:12:41;;;;;;;1.48;1.38;;;;;;;18.98;42.24;99811.22;;;;-58
2019/05/17 01:15:41;;;;;;;1.50;1.40;;;;;;;18.99;42.19;99808.41;;;;-58
2019/05/17 01:18:41;;;;;;;1.40;1.30;;;;;;;18.98;42.22;99807.28;;;;-59
2019/05/17 01:21:41;;;;;;;1.50;1.40;;;;;;;18.99;42.21;99806.08;;;;-58
2019/05/17 01:24:41;;;;;;;1.39;1.29;;;;;;;18.97;42.24;99799.98;;;;-58
2019/05/17 01:27:41;;;;;;;1.65;1.30;;;;;;;18.97;42.18;99795.80;;;;-59
2019/05/17 01:30:41;;;;;;;1.39;1.29;;;;;;;18.97;42.24;99794.95;;;;-58
2019/05/17 01:33:41;;;;;;;1.45;1.35;;;;;;;18.97;42.21;99795.86;;;;-59
2019/05/17 01:36:41;;;;;;;1.37;1.29;;;;;;;18.97;42.24;99795.96;;;;-58
2019/05/17 01:39:41;;;;;;;1.45;1.35;;;;;;;18.96;42.23;99791.41;;;;-58
2019/05/17 01:42:41;;;;;;;1.41;1.31;;;;;;;18.96;42.22;99789.13;;;;-58
2019/05/17 01:45:41;;;;;;;1.53;1.37;;;;;;;18.96;42.24;99792.48;;;;-59
2019/05/17 01:48:41;;;;;;;1.41;1.31;;;;;;;18.95;42.23;99791.64;;;;-58
2019/05/17 01:51:41;;;;;;;1.46;1.36;;;;;;;18.94;42.24;99783.58;;;;-58
2019/05/17 01:54:41;;;;;;;1.54;1.44;;;;;;;18.93;42.26;99783.88;;;;-58
2019/05/17 01:57:41;;;;;;;1.51;1.41;;;;;;;18.93;42.25;99780.86;;;;-52
2019/05/17 02:00:41;;;;;;;1.50;1.40;;;;;;;18.93;42.28;99777.31;;;;-51
2019/05/17 02:03:41;;;;;;;1.33;1.23;;;;;;;18.93;42.25;99775.73;;;;-51
2019/05/17 02:06:41;;;;;;;1.48;1.38;;;;;;;18.93;42.25;99770.79;;;;-51
2019/05/17 02:09:41;;;;;;;1.51;1.41;;;;;;;18.92;42.29;99770.28;;;;-51
2019/05/17 02:12:41;;;;;;;1.40;1.30;;;;;;;18.92;42.24;99766.34;;;;-51
2019/05/17 02:15:41;;;;;;;1.40;1.30;;;;;;;18.91;42.29;99765.97;;;;-52
2019/05/17 02:18:41;;;;;;;1.48;1.38;;;;;;;18.91;42.26;99764.56;;;;-52
2019/05/17 02:21:41;;;;;;;1.40;1.30;;;;;;;18.91;42.30;99764.89;;;;-53
2019/05/17 02:24:41;;;;;;;1.44;1.34;;;;;;;18.91;42.28;99762.52;;;;-52
2019/05/17 02:27:41;;;;;;;1.47;1.37;;;;;;;18.91;42.25;99756.66;;;;-52
2019/05/17 02:30:41;;;;;;;1.48;1.38;;;;;;;18.89;42.26;99752.95;;;;-52
2019/05/17 02:33:41;;;;;;;1.53;1.43;;;;;;;18.90;42.26;99751.44;;;;-52
2019/05/17 02:36:41;;;;;;;1.40;1.30;;;;;;;18.89;42.29;99754.02;;;;-51
2019/05/17 02:39:41;;;;;;;1.59;1.40;;;;;;;18.90;42.27;99749.03;;;;-52
2019/05/17 02:42:41;;;;;;;1.50;1.40;;;;;;;18.89;42.30;99747.22;;;;-52
2019/05/17 02:45:41;;;;;;;1.45;1.35;;;;;;;18.89;42.29;99746.89;;;;-51
2019/05/17 02:48:41;;;;;;;1.50;1.40;;;;;;;18.88;42.31;99747.45;;;;-51
2019/05/17 02:51:42;;;;;;;1.40;1.30;;;;;;;18.89;42.29;99743.38;;;;-58
2019/05/17 02:54:41;;;;;;;1.40;1.30;;;;;;;18.88;42.29;99740.77;;;;-59
2019/05/17 02:57:41;;;;;;;1.52;1.42;;;;;;;18.87;42.30;99744.61;;;;-58
2019/05/17 03:00:41;;;;;;;1.39;1.29;;;;;;;18.87;42.32;99745.95;;;;-58
2019/05/17 03:03:41;;;;;;;1.50;1.40;;;;;;;18.86;42.32;99743.23;;;;-58
2019/05/17 03:06:41;;;;;;;1.55;1.45;;;;;;;18.87;42.29;99744.30;;;;-58
2019/05/17 03:09:41;;;;;;;1.47;1.37;;;;;;;18.86;42.30;99737.28;;;;-58
2019/05/17 03:12:41;;;;;;;1.50;1.40;;;;;;;18.85;42.29;99735.84;;;;-58
2019/05/17 03:15:41;;;;;;;1.49;1.38;;;;;;;18.87;42.31;99734.91;;;;-58
2019/05/17 03:18:41;;;;;;;1.55;1.42;;;;;;;18.85;42.27;99734.13;;;;-59
2019/05/17 03:21:41;;;;;;;1.50;1.40;;;;;;;18.84;42.31;99734.80;;;;-58
2019/05/17 03:24:41;;;;;;;1.50;1.39;;;;;;;18.85;42.28;99736.04;;;;-58
2019/05/17 03:27:41;;;;;;;1.50;1.40;;;;;;;18.84;42.30;99738.14;;;;-58
2019/05/17 03:30:41;;;;;;;1.45;1.35;;;;;;;18.85;42.31;99738.38;;;;-58
2019/05/17 03:33:41;;;;;;;1.50;1.40;;;;;;;18.83;42.33;99733.56;;;;-58
2019/05/17 03:36:41;;;;;;;1.40;1.30;;;;;;;18.84;42.31;99737.84;;;;-58
2019/05/17 03:39:41;;;;;;;1.60;1.38;;;;;;;18.84;42.31;99738.98;;;;-59
2019/05/17 03:42:41;;;;;;;1.49;1.39;;;;;;;18.85;42.30;99738.72;;;;-59
2019/05/17 03:45:41;;;;;;;1.51;1.41;;;;;;;18.85;42.30;99734.17;;;;-59
2019/05/17 03:48:41;;;;;;;1.30;1.20;;;;;;;18.87;42.27;99735.98;;;;-50
2019/05/17 03:51:41;;;;;;;1.40;1.30;;;;;;;18.89;42.23;99733.54;;;;-51
2019/05/17 03:54:41;;;;;;;1.50;1.40;;;;;;;18.91;42.20;99730.43;;;;-50
2019/05/17 03:57:41;;;;;;;1.40;1.30;;;;;;;18.93;42.20;99730.73;;;;-50
2019/05/17 04:00:41;;;;;;;1.40;1.30;;;;;;;18.97;42.17;99724.85;;;;-51
2019/05/17 04:03:41;;;;;;;1.63;1.36;;;;;;;19.00;42.23;99723.78;;;;-50
2019/05/17 04:06:41;;;;;;;1.38;1.28;;;;;;;19.05;42.22;99722.58;;;;-50
2019/05/17 04:09:41;;;;;;;1.48;1.38;;;;;;;19.08;42.24;99721.78;;;;-51
2019/05/17 04:12:41;;;;;;;1.49;1.39;;;;;;;19.13;42.26;99725.94;;;;-51
2019/05/17 04:15:41;;;;;;;1.53;1.43;;;;;;;19.17;42.32;99723.59;;;;-52
2019/05/17 04:18:41;;;;;;;1.35;1.25;;;;;;;19.22;42.44;99726.04;;;;-57
2019/05/17 04:21:41;;;;;;;1.50;1.40;;;;;;;19.24;42.42;99726.70;;;;-57
2019/05/17 04:24:41;;;;;;;1.55;1.39;;;;;;;19.29;42.45;99732.97;;;;-57
2019/05/17 04:27:41;;;;;;;1.51;1.41;;;;;;;19.32;42.40;99735.85;;;;-57
2019/05/17 04:30:41;;;;;;;1.45;1.35;;;;;;;19.37;42.44;99737.86;;;;-57
2019/05/17 04:33:41;;;;;;;1.40;1.30;;;;;;;19.40;42.48;99741.48;;;;-51
2019/05/17 04:36:41;;;;;;;1.50;1.40;;;;;;;19.44;42.46;99743.25;;;;-51
2019/05/17 04:39:41;;;;;;;1.39;1.29;;;;;;;19.48;42.48;99746.00;;;;-52
2019/05/17 04:42:41;;;;;;;1.47;1.37;;;;;;;19.52;42.45;99749.95;;;;-51
2019/05/17 04:45:41;;;;;;;4.05;1.51;;;;;;;19.58;42.50;99743.45;;;;-52
2019/05/17 04:48:41;;;;;;;2.25;1.34;;;;;;;19.62;42.78;99747.69;;;;-49
2019/05/17 04:51:41;;;;;;;10.67;1.52;;;;;;;19.69;43.02;99745.14;;;;-52
2019/05/17 04:54:41;;;;;;;1.73;1.31;;;;;;;19.73;42.98;99741.48;;;;-50
2019/05/17 04:57:41;;;;;;;5.37;1.65;;;;;;;19.82;42.68;99743.27;;;;-51
2019/05/17 05:00:41;;;;;;;2.19;1.60;;;;;;;19.78;42.35;99739.56;;;;-52
2019/05/17 05:03:41;;;;;;;3.32;1.45;;;;;;;19.79;42.30;99741.27;;;;-51
2019/05/17 05:06:41;;;;;;;2.04;1.35;;;;;;;19.80;42.20;99735.17;;;;-51
2019/05/17 05:09:41;;;;;;;4.11;1.45;;;;;;;19.80;42.13;99736.28;;;;-51
2019/05/17 05:12:41;;;;;;;1.68;1.50;;;;;;;19.82;42.06;99735.73;;;;-52
2019/05/17 05:15:41;;;;;;;2.99;1.40;;;;;;;19.83;42.12;99734.59;;;;-51
2019/05/17 05:18:41;;;;;;;3.59;1.49;;;;;;;19.84;42.10;99731.61;;;;-52
2019/05/17 05:21:41;;;;;;;1.50;1.40;;;;;;;19.85;42.01;99730.53;;;;-51
2019/05/17 05:24:41;;;;;;;1.50;1.40;;;;;;;19.87;42.03;99725.94;;;;-51
2019/05/17 05:27:41;;;;;;;2.03;1.40;;;;;;;19.87;41.97;99718.90;;;;-52
2019/05/17 05:30:41;;;;;;;2.76;1.47;;;;;;;19.90;41.96;99721.58;;;;-51
2019/05/17 05:33:41;;;;;;;3.17;1.47;;;;;;;19.91;41.90;99721.94;;;;-50
2019/05/17 05:36:41;;;;;;;3.01;1.65;;;;;;;19.94;42.20;99722.30;;;;-51
2019/05/17 05:39:41;;;;;;;3.26;1.90;;;;;;;19.96;42.38;99716.06;;;;-47
2019/05/17 05:42:41;;;;;;;3.51;2.00;;;;;;;19.98;41.76;99719.51;;;;-50
2019/05/17 05:45:41;;;;;;;2.75;1.99;;;;;;;20.00;41.67;99721.31;;;;-50
2019/05/17 05:48:41;;;;;;;3.95;2.86;;;;;;;20.02;42.16;99718.19;;;;-54
2019/05/17 05:51:41;;;;;;;4.60;3.46;;;;;;;20.05;42.61;99721.39;;;;-55
2019/05/17 05:54:41;;;;;;;4.51;3.56;;;;;;;20.07;42.67;99721.52;;;;-57
2019/05/17 05:57:41;;;;;;;3.85;3.42;;;;;;;20.10;42.63;99721.28;;;;-58
2019/05/17 06:00:41;;;;;;;5.24;2.94;;;;;;;20.12;42.40;99722.25;;;;-51
2019/05/17 06:03:41;;;;;;;5.58;2.74;;;;;;;20.16;42.67;99724.78;;;;-50
2019/05/17 06:06:41;;;;;;;4.60;2.28;;;;;;;20.22;43.04;99722.55;;;;-51
2019/05/17 06:09:41;;;;;;;2.47;2.27;;;;;;;20.24;42.64;99721.09;;;;-50
2019/05/17 06:12:41;;;;;;;2.37;2.08;;;;;;;20.26;42.71;99718.87;;;;-48
2019/05/17 06:15:41;;;;;;;2.89;1.97;;;;;;;20.28;43.03;99718.30;;;;-51
2019/05/17 06:18:41;;;;;;;2.43;1.92;;;;;;;20.30;42.95;99721.17;;;;-51
2019/05/17 06:21:41;;;;;;;2.21;1.72;;;;;;;20.32;42.72;99715.70;;;;-54
2019/05/17 06:24:41;;;;;;;5.09;1.99;;;;;;;20.29;41.89;99718.73;;;;-53
2019/05/17 06:27:41;;;;;;;5.33;2.21;;;;;;;20.30;42.31;99712.98;;;;-54
2019/05/17 06:30:41;;;;;;;4.13;2.07;;;;;;;20.33;42.57;99712.95;;;;-52
2019/05/17 06:33:41;;;;;;;3.29;2.01;;;;;;;20.34;42.42;99707.64;;;;-55
2019/05/17 06:36:41;;;;;;;5.60;1.81;;;;;;;20.34;42.69;99710.48;;;;-55
2019/05/17 06:39:41;;;;;;;3.43;1.94;;;;;;;20.34;42.43;99710.66;;;;-53
2019/05/17 06:42:41;;;;;;;3.83;2.15;;;;;;;20.36;42.40;99711.45;;;;-53
2019/05/17 06:45:41;;;;;;;4.37;1.95;;;;;;;20.38;42.45;99712.78;;;;-57
2019/05/17 06:48:41;;;;;;;3.45;1.87;;;;;;;20.39;42.92;99711.64;;;;-53
2019/05/17 06:51:41;;;;;;;4.69;1.89;;;;;;;20.40;42.67;99709.72;;;;-53
2019/05/17 06:54:41;;;;;;;3.07;1.90;;;;;;;20.42;42.76;99708.17;;;;-54
2019/05/17 06:57:41;;;;;;;4.35;1.96;;;;;;;20.42;42.23;99704.08;;;;-54
2019/05/17 07:00:41;;;;;;;5.29;1.98;;;;;;;20.42;42.13;99701.66;;;;-53
2019/05/17 07:03:41;;;;;;;3.15;1.89;;;;;;;20.42;42.01;99700.83;;;;-54
2019/05/17 07:06:41;;;;;;;2.43;1.73;;;;;;;20.43;41.94;99695.89;;;;-54
2019/05/17 07:09:41;;;;;;;3.64;1.80;;;;;;;20.43;41.97;99694.95;;;;-54
2019/05/17 07:12:41;;;;;;;2.11;1.73;;;;;;;20.42;41.86;99690.42;;;;-54
2019/05/17 07:15:41;;;;;;;7.07;2.14;;;;;;;20.45;42.23;99690.75;;;;-55
2019/05/17 07:18:41;;;;;;;5.20;1.80;;;;;;;20.48;42.12;99691.80;;;;-52
2019/05/17 07:21:41;;;;;;;4.19;1.94;;;;;;;20.49;42.21;99681.30;;;;-54
2019/05/17 07:24:41;;;;;;;3.98;1.91;;;;;;;20.50;42.19;99677.88;;;;-52
2019/05/17 07:27:41;;;;;;;4.91;1.90;;;;;;;20.52;42.38;99683.13;;;;-54
2019/05/17 07:30:41;;;;;;;2.96;1.88;;;;;;;20.53;42.23;99677.05;;;;-53
2019/05/17 07:33:41;;;;;;;3.19;1.73;;;;;;;20.56;42.45;99671.42;;;;-53
2019/05/17 07:36:41;;;;;;;4.55;1.83;;;;;;;20.57;42.58;99670.84;;;;-54
2019/05/17 07:39:41;;;;;;;3.03;1.65;;;;;;;20.59;42.26;99664.97;;;;-64
2019/05/17 07:42:41;;;;;;;7.32;2.23;;;;;;;20.60;42.30;99661.14;;;;-52
2019/05/17 07:45:41;;;;;;;4.21;2.02;;;;;;;20.65;42.67;99654.03;;;;-53
2019/05/17 07:48:41;;;;;;;5.89;1.94;;;;;;;20.64;42.12;99650.23;;;;-58
2019/05/17 07:51:41;;;;;;;2.92;1.77;;;;;;;20.65;42.05;99650.33;;;;-57
2019/05/17 07:54:41;;;;;;;6.67;1.92;;;;;;;20.65;41.87;99645.98;;;;-58
2019/05/17 07:57:41;;;;;;;3.87;1.82;;;;;;;20.65;41.89;99635.00;;;;-52
2019/05/17 08:00:41;;;;;;;4.81;1.99;;;;;;;20.66;42.22;99629.05;;;;-53
2019/05/17 08:03:41;;;;;;;6.67;1.82;;;;;;;20.68;42.50;99627.59;;;;-53
2019/05/17 08:06:41;;;;;;;4.65;2.01;;;;;;;20.69;42.49;99626.20;;;;-53
2019/05/17 08:09:41;;;;;;;3.24;1.86;;;;;;;20.70;42.26;99623.05;;;;-57
2019/05/17 08:12:41;;;;;;;4.18;1.93;;;;;;;20.72;42.22;99621.05;;;;-54
2019/05/17 08:15:41;;;;;;;3.46;1.77;;;;;;;20.74;42.29;99619.27;;;;-53
2019/05/17 08:18:41;;;;;;;4.68;1.80;;;;;;;20.74;42.11;99614.23;;;;-52
2019/05/17 08:21:41;;;;;;;3.27;1.73;;;;;;;20.74;42.18;99608.72;;;;-52
2019/05/17 08:24:41;;;;;;;3.78;1.77;;;;;;;20.75;42.27;99607.38;;;;-52
2019/05/17 08:27:41;;;;;;;4.07;1.82;;;;;;;20.75;42.47;99608.72;;;;-52
2019/05/17 08:30:41;;;;;;;4.15;1.77;;;;;;;20.76;42.71;99607.33;;;;-52
2019/05/17 08:33:41;;;;;;;2.19;1.66;;;;;;;20.75;42.38;99597.41;;;;-54
2019/05/17 08:36:41;;;;;;;3.87;1.73;;;;;;;20.75;42.27;99602.38;;;;-52
2019/05/17 08:39:43;;;;;;;4.13;1.80;;;;;;;20.75;42.41;99599.26;;;;-59
2019/05/17 08:42:41;;;;;;;2.70;1.70;;;;;;;20.75;42.52;99594.32;;;;-53
2019/05/17 08:45:41;;;;;;;2.01;1.71;;;;;;;20.74;42.15;99594.36;;;;-54
2019/05/17 08:48:41;;;;;;;3.46;1.69;;;;;;;20.72;42.01;99594.58;;;;-53
2019/05/17 08:51:41;;;;;;;2.63;1.64;;;;;;;20.70;41.94;99592.69;;;;-54
2019/05/17 08:54:41;;;;;;;2.97;1.75;;;;;;;20.69;41.88;99595.08;;;;-54
2019/05/17 08:57:41;;;;;;;1.98;1.59;;;;;;;20.67;41.90;99586.06;;;;-53
2019/05/17 09:00:41;;;;;;;2.60;1.70;;;;;;;20.66;41.84;99587.72;;;;-53
2019/05/17 09:03:41;;;;;;;2.12;1.60;;;;;;;20.65;41.86;99582.73;;;;-53
2019/05/17 09:06:41;;;;;;;1.98;1.64;;;;;;;20.62;41.82;99573.28;;;;-53
2019/05/17 09:09:41;;;;;;;2.39;1.75;;;;;;;20.61;41.80;99570.07;;;;-53
2019/05/17 09:12:41;;;;;;;3.13;1.73;;;;;;;20.60;41.78;99573.47;;;;-53
2019/05/17 09:15:41;;;;;;;1.90;1.57;;;;;;;20.58;41.76;99565.87;;;;-53
2019/05/17 09:18:41;;;;;;;3.45;1.60;;;;;;;20.57;41.77;99564.09;;;;-53
2019/05/17 09:21:41;;;;;;;2.97;1.58;;;;;;;20.56;41.80;99559.44;;;;-53
2019/05/17 09:24:41;;;;;;;2.67;1.64;;;;;;;20.54;41.81;99550.67;;;;-53
2019/05/17 09:27:41;;;;;;;2.20;1.60;;;;;;;20.53;41.75;99551.98;;;;-53
2019/05/17 09:30:41;;;;;;;1.73;1.56;;;;;;;20.51;41.76;99551.59;;;;-53
2019/05/17 09:33:41;;;;;;;1.71;1.47;;;;;;;20.50;41.82;99546.30;;;;-53
2019/05/17 09:36:41;;;;;;;2.17;1.61;;;;;;;20.49;41.77;99541.89;;;;-53
2019/05/17 09:39:41;;;;;;;1.73;1.63;;;;;;;20.48;41.75;99543.14;;;;-53
2019/05/17 09:42:41;;;;;;;1.83;1.56;;;;;;;20.46;41.77;99539.23;;;;-53
2019/05/17 09:45:41;;;;;;;1.93;1.51;;;;;;;20.45;41.73;99535.28;;;;-53
2019/05/17 09:48:41;;;;;;;2.17;1.56;;;;;;;20.44;41.75;99528.61;;;;-54
2019/05/17 09:51:41;;;;;;;1.73;1.53;;;;;;;20.42;41.78;99531.34;;;;-54
2019/05/17 09:54:41;;;;;;;1.81;1.58;;;;;;;20.41;41.82;99527.46;;;;-53
2019/05/17 09:57:41;;;;;;;1.61;1.50;;;;;;;20.39;41.73;99525.91;;;;-53
2019/05/17 10:00:41;;;;;;;2.87;1.70;;;;;;;20.37;41.82;99529.63;;;;-53
2019/05/17 10:03:41;;;;;;;1.87;1.47;;;;;;;20.36;41.78;99523.91;;;;-54
2019/05/17 10:06:41;;;;;;;1.95;1.50;;;;;;;20.35;41.78;99522.70;;;;-53
2019/05/17 10:09:41;;;;;;;2.02;1.60;;;;;;;20.33;41.82;99519.88;;;;-54
2019/05/17 10:12:41;;;;;;;1.54;1.44;;;;;;;20.32;41.84;99523.47;;;;-53
2019/05/17 10:15:41;;;;;;;1.58;1.48;;;;;;;20.31;41.76;99518.98;;;;-54
2019/05/17 10:18:41;;;;;;;1.63;1.49;;;;;;;20.30;41.84;99509.64;;;;-53
2019/05/17 10:21:41;;;;;;;1.75;1.49;;;;;;;20.28;41.83;99507.84;;;;-53
2019/05/17 10:24:41;;;;;;;2.27;1.47;;;;;;;20.27;41.81;99511.53;;;;-53
2019/05/17 10:27:41;;;;;;;1.51;1.41;;;;;;;20.25;41.79;99504.61;;;;-52
2019/05/17 10:30:41;;;;;;;1.89;1.51;;;;;;;20.25;41.84;99504.58;;;;-53
2019/05/17 10:33:41;;;;;;;1.90;1.50;;;;;;;20.23;41.84;99497.84;;;;-53
2019/05/17 10:36:41;;;;;;;1.77;1.61;;;;;;;20.23;41.82;99499.09;;;;-53
2019/05/17 10:39:41;;;;;;;1.60;1.50;;;;;;;20.22;41.85;99500.30;;;;-53
2019/05/17 10:42:42;;;;;;;1.79;1.58;;;;;;;20.21;41.90;99495.59;;;;-53
2019/05/17 10:45:41;;;;;;;1.91;1.50;;;;;;;20.19;41.89;99490.87;;;;-53
2019/05/17 10:48:41;;;;;;;2.12;1.47;;;;;;;20.19;41.88;99493.62;;;;-53
2019/05/17 10:51:41;;;;;;;1.65;1.55;;;;;;;20.17;41.91;99483.69;;;;-53
2019/05/17 10:54:41;;;;;;;2.55;1.51;;;;;;;20.16;41.86;99492.27;;;;-53
2019/05/17 10:57:41;;;;;;;1.63;1.53;;;;;;;20.15;41.93;99496.13;;;;-53
2019/05/17 11:00:41;;;;;;;1.51;1.41;;;;;;;20.15;41.90;99492.02;;;;-53
2019/05/17 11:03:41;;;;;;;1.69;1.42;;;;;;;20.13;41.95;99481.73;;;;-53
2019/05/17 11:06:42;;;;;;;1.87;1.59;;;;;;;20.13;41.93;99485.69;;;;-53
2019/05/17 11:09:41;;;;;;;3.49;1.62;;;;;;;20.11;41.96;99479.33;;;;-51
2019/05/17 11:12:41;;;;;;;2.07;1.58;;;;;;;20.12;42.07;99477.11;;;;-52
2019/05/17 11:15:41;;;;;;;2.63;1.55;;;;;;;20.12;42.21;99475.00;;;;-52
2019/05/17 11:18:41;;;;;;;3.09;1.82;;;;;;;20.13;42.28;99475.02;;;;-53
2019/05/17 11:21:41;;;;;;;8.15;1.96;;;;;;;20.13;42.53;99474.69;;;;-53
2019/05/17 11:24:41;;;;;;;7.93;1.82;;;;;;;20.15;42.25;99477.69;;;;-51
2019/05/17 11:27:41;;;;;;;4.19;2.01;;;;;;;20.16;42.31;99471.48;;;;-53
2019/05/17 11:30:41;;;;;;;6.22;2.15;;;;;;;20.16;42.48;99472.25;;;;-50
2019/05/17 11:33:41;;;;;;;6.37;2.09;;;;;;;20.18;42.19;99472.98;;;;-51
2019/05/17 11:36:41;;;;;;;6.48;2.21;;;;;;;20.17;42.31;99473.96;;;;-51
2019/05/17 11:39:41;;;;;;;4.40;1.82;;;;;;;20.18;42.36;99471.81;;;;-51
2019/05/17 11:42:41;;;;;;;7.17;2.07;;;;;;;20.18;42.96;99468.02;;;;-55
2019/05/17 11:45:41;;;;;;;3.93;1.89;;;;;;;20.18;42.79;99468.80;;;;-52
2019/05/17 11:48:41;;;;;;;4.21;2.09;;;;;;;20.19;42.51;99469.14;;;;-53
2019/05/17 11:51:41;;;;;;;4.43;1.97;;;;;;;20.20;42.55;99469.17;;;;-52
2019/05/17 11:54:41;;;;;;;3.69;1.93;;;;;;;20.20;42.49;99463.64;;;;-53
2019/05/17 11:57:41;;;;;;;5.91;2.25;;;;;;;20.19;42.44;99462.61;;;;-51
2019/05/17 12:00:41;;;;;;;6.43;2.27;;;;;;;20.19;42.51;99454.56;;;;-53
2019/05/17 12:03:41;;;;;;;4.74;2.17;;;;;;;20.18;42.61;99450.42;;;;-54
2019/05/17 12:06:41;;;;;;;4.73;2.13;;;;;;;20.16;42.82;99452.74;;;;-51
2019/05/17 12:09:41;;;;;;;4.86;2.20;;;;;;;20.18;42.80;99450.58;;;;-52
2019/05/17 12:12:41;;;;;;;8.43;2.19;;;;;;;20.16;42.65;99443.86;;;;-52
2019/05/17 12:15:41;;;;;;;5.04;1.95;;;;;;;20.14;42.61;99440.79;;;;-54
2019/05/17 12:18:41;;;;;;;8.15;2.07;;;;;;;20.14;42.66;99439.11;;;;-52
2019/05/17 12:21:41;;;;;;;6.45;2.01;;;;;;;20.12;42.61;99439.13;;;;-52
2019/05/17 12:24:41;;;;;;;5.29;2.22;;;;;;;20.10;42.62;99437.00;;;;-52
2019/05/17 12:27:41;;;;;;;3.25;2.15;;;;;;;20.10;42.58;99439.58;;;;-53
2019/05/17 12:30:41;;;;;;;2.79;1.86;;;;;;;20.09;42.57;99441.00;;;;-52
2019/05/17 12:33:41;;;;;;;2.92;1.87;;;;;;;20.09;42.46;99438.05;;;;-52
2019/05/17 12:36:41;;;;;;;3.68;1.93;;;;;;;20.06;42.51;99435.33;;;;-53
2019/05/17 12:39:41;;;;;;;2.67;1.95;;;;;;;20.06;42.47;99431.77;;;;-52
2019/05/17 12:42:41;;;;;;;2.94;2.04;;;;;;;20.04;42.43;99429.47;;;;-53
2019/05/17 12:45:41;;;;;;;5.22;2.13;;;;;;;20.04;42.47;99435.84;;;;-52
2019/05/17 12:48:41;;;;;;;2.23;1.77;;;;;;;20.02;42.51;99435.28;;;;-53
2019/05/17 12:51:41;;;;;;;3.30;1.74;;;;;;;20.01;42.45;99433.35;;;;-52
2019/05/17 12:54:41;;;;;;;4.83;2.05;;;;;;;20.01;42.61;99428.89;;;;-51
2019/05/17 12:57:41;;;;;;;3.44;1.80;;;;;;;20.02;42.64;99428.92;;;;-52
2019/05/17 13:00:41;;;;;;;2.09;1.70;;;;;;;20.03;42.70;99425.42;;;;-58
2019/05/17 13:03:41;;;;;;;2.73;1.82;;;;;;;20.03;42.84;99420.83;;;;-60
2019/05/17 13:06:41;;;;;;;2.85;1.80;;;;;;;20.03;42.93;99418.45;;;;-55
2019/05/17 13:09:41;;;;;;;3.65;1.89;;;;;;;20.04;42.95;99418.41;;;;-59
2019/05/17 13:12:41;;;;;;;3.34;1.83;;;;;;;20.04;42.94;99415.89;;;;-55
2019/05/17 13:15:41;;;;;;;3.64;1.93;;;;;;;20.04;42.95;99412.05;;;;-57
2019/05/17 13:18:41;;;;;;;3.31;1.80;;;;;;;20.05;43.00;99409.98;;;;-56
2019/05/17 13:21:41;;;;;;;2.28;1.85;;;;;;;20.04;43.05;99401.42;;;;-55
2019/05/17 13:24:41;;;;;;;2.23;1.71;;;;;;;20.05;42.95;99398.42;;;;-56
2019/05/17 13:27:41;;;;;;;4.18;1.99;;;;;;;20.05;43.00;99397.32;;;;-57
2019/05/17 13:30:41;;;;;;;4.31;1.77;;;;;;;20.04;43.04;99400.58;;;;-56
2019/05/17 13:33:41;;;;;;;3.63;1.91;;;;;;;20.05;43.04;99395.98;;;;-57
2019/05/17 13:36:41;;;;;;;2.73;1.85;;;;;;;20.05;43.01;99395.24;;;;-57
2019/05/17 13:39:41;;;;;;;3.05;1.97;;;;;;;20.06;42.99;99398.69;;;;-59
2019/05/17 13:42:41;;;;;;;4.51;2.00;;;;;;;20.06;42.92;99402.20;;;;-57
2019/05/17 13:45:41;;;;;;;2.81;1.91;;;;;;;20.06;43.39;99391.31;;;;-52
2019/05/17 13:48:41;;;;;;;5.62;1.95;;;;;;;20.08;43.75;99388.75;;;;-56
2019/05/17 13:51:41;;;;;;;5.54;1.99;;;;;;;20.11;45.15;99382.63;;;;-60
2019/05/17 13:54:41;;;;;;;6.11;2.10;;;;;;;20.10;44.48;99374.81;;;;-55
2019/05/17 13:57:41;;;;;;;12.78;2.40;;;;;;;20.13;44.78;99373.45;;;;-58
2019/05/17 14:00:41;;;;;;;6.48;1.97;;;;;;;20.13;44.19;99370.61;;;;-52
2019/05/17 14:03:41;;;;;;;4.73;1.90;;;;;;;20.13;44.62;99366.84;;;;-60
2019/05/17 14:06:41;;;;;;;4.41;1.96;;;;;;;20.13;44.48;99366.08;;;;-59
2019/05/17 14:09:41;;;;;;;5.06;1.94;;;;;;;20.14;44.53;99370.06;;;;-54
2019/05/17 14:12:41;;;;;;;5.50;1.96;;;;;;;20.13;44.64;99371.88;;;;-55
2019/05/17 14:15:41;;;;;;;3.02;1.89;;;;;;;20.14;44.40;99371.97;;;;-57
2019/05/17 14:18:41;;;;;;;4.21;2.04;;;;;;;20.14;44.47;99366.88;;;;-55
2019/05/17 14:21:41;;;;;;;6.22;2.00;;;;;;;20.14;44.63;99368.45;;;;-55
2019/05/17 14:24:41;;;;;;;4.01;1.88;;;;;;;20.14;44.47;99369.55;;;;-57
2019/05/17 14:27:41;;;;;;;7.01;1.93;;;;;;;20.13;44.73;99369.19;;;;-54
2019/05/17 14:30:41;;;;;;;4.80;1.91;;;;;;;20.14;44.41;99365.02;;;;-59
2019/05/17 14:33:41;;;;;;;6.95;1.96;;;;;;;20.13;44.29;99364.33;;;;-57
2019/05/17 14:36:41;;;;;;;3.59;1.95;;;;;;;20.14;44.29;99368.28;;;;-58
2019/05/17 14:39:41;;;;;;;5.06;2.10;;;;;;;20.14;44.49;99366.44;;;;-54
2019/05/17 14:42:41;;;;;;;3.58;1.84;;;;;;;20.14;44.32;99363.19;;;;-58
2019/05/17 14:45:41;;;;;;;3.17;1.75;;;;;;;20.15;44.22;99359.42;;;;-58
2019/05/17 14:48:41;;;;;;;3.42;1.84;;;;;;;20.14;44.35;99354.63;;;;-55
2019/05/17 14:51:41;;;;;;;7.65;2.01;;;;;;;20.14;44.39;99358.16;;;;-57
2019/05/17 14:54:41;;;;;;;7.00;2.00;;;;;;;20.15;44.38;99355.33;;;;-58
2019/05/17 14:57:41;;;;;;;5.05;2.08;;;;;;;20.15;44.25;99357.17;;;;-57
2019/05/17 15:00:41;;;;;;;6.30;2.04;;;;;;;20.16;44.19;99355.66;;;;-56
2019/05/17 15:03:41;;;;;;;4.52;2.06;;;;;;;20.15;44.14;99349.80;;;;-55
2019/05/17 15:06:41;;;;;;;4.55;2.06;;;;;;;20.16;44.17;99345.27;;;;-58
2019/05/17 15:09:41;;;;;;;9.13;2.08;;;;;;;20.15;44.32;99342.48;;;;-55
2019/05/17 15:12:41;;;;;;;5.11;1.79;;;;;;;20.18;43.92;99341.89;;;;-53
2019/05/17 15:15:41;;;;;;;4.99;2.07;;;;;;;20.19;43.79;99340.08;;;;-52
2019/05/17 15:18:41;;;;;;;6.57;2.11;;;;;;;20.20;43.71;99339.93;;;;-52
2019/05/17 15:21:41;;;;;;;6.17;2.07;;;;;;;20.20;43.91;99337.65;;;;-58
2019/05/17 15:24:41;;;;;;;4.04;1.84;;;;;;;20.21;43.78;99332.41;;;;-59
2019/05/17 15:27:41;;;;;;;4.72;2.05;;;;;;;20.19;43.83;99329.68;;;;-57
2019/05/17 15:30:41;;;;;;;7.27;2.00;;;;;;;20.20;44.28;99332.89;;;;-57
2019/05/17 15:33:41;;;;;;;4.65;1.86;;;;;;;20.19;44.10;99335.11;;;;-60
2019/05/17 15:41:00;;;;;;;5.47;2.23;;;;;;;20.44;43.81;99335.11;;;;-39
2019/05/17 15:46:19;;;;;;;5.62;2.02;;;;;;;20.52;43.24;99337.44;;;;-40
2019/05/17 15:49:19;;;;;;;5.57;2.00;;;;;;;20.53;43.26;99336.45;;;;-40
2019/05/17 15:55:51;;;;;;;3.63;2.00;;;;;;;20.54;42.74;99335.06;;;;-39
2019/05/17 15:58:51;;;;;;;3.81;1.98;;;;;;;20.55;42.97;99327.61;;;;-39
2019/05/17 16:01:51;;;;;;;3.48;2.09;;;;;;;20.56;42.59;99321.94;;;;-44
2019/05/17 16:04:51;;;;;;;4.11;1.95;;;;;;;20.58;41.98;99327.95;;;;-43
2019/05/17 16:07:51;;;;;;;4.40;2.13;;;;;;;20.58;41.87;99321.47;;;;-47
2019/05/17 16:10:51;;;;;;;4.71;2.01;;;;;;;20.59;41.68;99323.17;;;;-44
2019/05/17 16:13:51;;;;;;;3.21;2.11;;;;;;;20.60;42.39;99324.13;;;;-44
2019/05/17 16:16:51;;;;;;;3.98;2.11;;;;;;;20.61;41.99;99321.87;;;;-45
2019/05/17 16:19:51;;;;;;;2.67;1.84;;;;;;;20.62;42.20;99315.34;;;;-40
2019/05/17 16:22:51;;;;;;;3.11;2.04;;;;;;;20.63;41.97;99317.55;;;;-40
2019/05/17 16:25:51;;;;;;;2.25;2.03;;;;;;;20.63;41.74;99311.75;;;;-39
2019/05/17 16:28:51;;;;;;;3.59;1.98;;;;;;;20.63;41.93;99308.39;;;;-39
2019/05/17 16:35:16;;;;;;;3.49;1.99;;;;;;;20.44;42.42;99303.39;;;;-60
2019/05/17 16:38:16;;;;;;;2.69;2.00;;;;;;;20.38;42.65;99307.05;;;;-62
2019/05/17 16:41:16;;;;;;;4.33;1.90;;;;;;;20.33;42.75;99306.94;;;;-62
2019/05/17 16:44:16;;;;;;;3.96;2.11;;;;;;;20.28;42.79;99303.33;;;;-60
2019/05/17 16:47:16;;;;;;;4.23;2.00;;;;;;;20.25;42.92;99303.97;;;;-60
2019/05/17 16:50:16;;;;;;;4.36;2.12;;;;;;;20.20;42.92;99305.66;;;;-59
2019/05/17 16:53:16;;;;;;;3.31;2.09;;;;;;;20.18;42.95;99309.44;;;;-60
2019/05/17 16:56:16;;;;;;;3.04;1.87;;;;;;;20.16;43.06;99311.27;;;;-54
2019/05/17 16:59:16;;;;;;;2.23;1.93;;;;;;;20.13;43.07;99309.09;;;;-54
2019/05/17 17:02:16;;;;;;;2.24;1.88;;;;;;;20.11;43.14;99309.20;;;;-53
2019/05/17 17:05:16;;;;;;;2.15;1.89;;;;;;;20.09;43.08;99310.16;;;;-53
2019/05/17 17:08:16;;;;;;;3.16;1.97;;;;;;;20.08;43.10;99312.25;;;;-53